Latest Weather Observations for Cairns Racecourse

IDQ60801

Issued at 7:35 pm EST Friday 25 April 2014 (issued every 30 minutes, with the page automatically refreshed every 10 minutes)

About weather observations | Map of weather stations | Latest weather observations for QLD | Other Formats
Station Details ID: 031222 Name: CAIRNS RACECOURSE Lat: -16.95 Lon: 145.75 Height: 4.1 m
Data from the previous 72 hours. | See also: Recent months for locations in Queensland
Date/Time
EST
Temp
°C
App
Temp
°C
Dew
Point
Rel
Hum
%
Delta-T
°C
Wind Press
QNH
hPa
Press
MSL
hPa
Rain
since 9 am
mm
Dir
 
Spd
km/h
Gust
km/h
Spd
kts
Gust
kts
25/07:30pm 24.0 27.8 24.0 100 0.0 SE 11 26 6 14 - - 18.8
25/07:00pm 23.9 28.0 23.9 100 0.0 SSW 9 13 5 7 - - 13.2
25/06:30pm 24.1 28.3 24.1 100 0.0 SSE 9 20 5 11 - - 11.8
25/06:00pm 24.1 27.2 24.1 100 0.0 S 15 20 8 11 - - 9.0
25/05:30pm 23.7 26.1 23.7 100 0.0 SSW 17 24 9 13 - - 8.6
25/05:00pm 24.0 27.0 24.0 100 0.0 S 15 20 8 11 - - 8.4
25/04:30pm 24.0 26.2 24.0 100 0.0 SE 19 26 10 14 - - 7.2
25/04:00pm 24.6 28.7 24.6 100 0.0 ESE 11 22 6 12 - - 5.2
25/03:30pm 25.1 29.9 25.1 100 0.0 SSW 9 15 5 8 - - 4.2
25/03:00pm 25.1 30.1 24.8 98 0.2 SSE 7 13 4 7 - - 3.2
25/02:30pm 25.7 29.0 24.5 93 0.8 SSW 15 24 8 13 - - 1.6
25/02:00pm 25.6 29.1 24.2 92 1.0 S 13 17 7 9 - - 1.6
25/01:30pm 25.4 29.5 25.2 99 0.1 S 13 20 7 11 - - 1.6
25/01:00pm 25.0 28.2 24.3 96 0.5 S 15 24 8 13 - - 1.6
25/12:30pm 24.7 27.1 24.2 97 0.3 S 19 22 10 12 - - 1.6
25/12:00pm 25.0 28.3 24.5 97 0.3 S 15 22 8 12 - - 1.6
25/11:30am 25.3 28.0 24.1 93 0.8 SE 17 28 9 15 - - 1.6
25/11:00am 24.7 26.6 24.4 98 0.2 SE 22 33 12 18 - - 1.6
25/10:30am 26.3 31.6 25.8 97 0.4 S 9 17 5 9 - - 1.2
25/10:00am 25.7 30.5 25.7 100 0.0 SE 11 17 6 9 - - 1.2
25/09:30am 25.5 29.5 25.0 97 0.3 S 13 19 7 10 - - 0.0
25/09:00am 24.8 29.0 24.8 100 0.0 SSW 11 17 6 9 - - 45.2
25/08:30am 24.3 28.2 24.3 100 0.0 SE 11 20 6 11 - - 44.8
25/08:00am 24.4 30.5 24.4 100 0.0 CALM 0 0 0 0 - - 40.6
25/07:30am 24.0 29.1 24.0 100 0.0 SW 4 15 2 8 - - 38.6
25/07:00am 23.8 28.4 23.8 100 0.0 WNW 6 9 3 5 - - 38.0
25/06:30am 23.9 28.0 23.9 100 0.0 SE 9 11 5 6 - - 32.2
25/06:00am 24.0 28.3 23.7 98 0.2 SSE 7 11 4 6 - - 32.0
25/05:30am 24.3 27.9 23.8 97 0.3 S 11 17 6 9 - - 32.0
25/05:00am 24.0 28.0 23.7 98 0.2 S 9 15 5 8 - - 32.0
25/04:30am 24.2 28.3 23.9 98 0.2 SSE 9 13 5 7 - - 31.8
25/04:00am 24.3 28.3 23.8 97 0.3 SSE 9 13 5 7 - - 31.6
25/03:30am 24.1 27.7 23.8 98 0.2 S 11 17 6 9 - - 31.6
25/03:00am 24.1 27.4 23.8 98 0.2 S 13 17 7 9 - - 31.6
25/02:30am 23.8 27.7 23.6 99 0.1 SSE 9 13 5 7 - - 31.4
25/02:00am 23.8 28.1 23.6 99 0.1 S 7 11 4 6 - - 31.4
25/01:30am 23.9 28.2 23.7 99 0.1 SSE 7 13 4 7 - - 31.4
25/01:00am 24.0 28.0 23.8 99 0.1 S 9 15 5 8 - - 31.4
25/12:30am 24.0 27.6 23.8 99 0.1 S 11 17 6 9 - - 31.4
25/12:00am 24.0 27.4 24.0 100 0.0 S 13 19 7 10 - - 31.4
 
Date/Time
EST
Temp
°C
App
Temp
°C
Dew
Point
Rel
Hum
%
Delta-T
°C
Wind Press
QNH
hPa
Press
MSL
hPa
Rain
since 9 am
mm
Dir
 
Spd
km/h
Gust
km/h
Spd
kts
Gust
kts
24/11:30pm 24.1 28.3 24.1 100 0.0 S 9 13 5 7 - - 31.0
24/11:00pm 23.9 28.0 23.9 100 0.0 S 9 13 5 7 - - 30.8
24/10:30pm 23.7 28.0 23.7 100 0.0 S 7 13 4 7 - - 30.6
24/10:00pm 23.6 28.1 23.6 100 0.0 SE 6 9 3 5 - - 30.0
24/09:30pm 23.5 29.1 23.5 100 0.0 CALM 0 6 0 3 - - 29.0
24/09:00pm 23.3 27.6 23.3 100 0.0 NW 6 9 3 5 - - 28.8
24/08:30pm 23.2 27.8 23.2 100 0.0 NW 4 7 2 4 - - 28.6
24/08:00pm 23.2 26.9 23.2 100 0.0 NE 9 15 5 8 - - 26.4
24/07:30pm 23.5 27.7 23.5 100 0.0 SW 7 13 4 7 - - 20.8
24/07:00pm 23.6 28.5 23.6 100 0.0 S 4 9 2 5 - - 14.6
24/06:30pm 23.5 29.1 23.5 100 0.0 CALM 0 0 0 0 - - 13.8
24/06:00pm 23.5 27.2 23.3 99 0.1 S 9 13 5 7 - - 13.4
24/05:30pm 23.4 26.3 23.2 99 0.1 SSW 13 20 7 11 - - 13.2
24/05:00pm 23.6 26.7 23.6 100 0.0 S 13 20 7 11 - - 12.8
24/04:30pm 23.7 26.5 23.7 100 0.0 S 15 20 8 11 - - 11.8
24/04:00pm 24.5 28.2 24.5 100 0.0 SSE 13 20 7 11 - - 6.6
24/03:30pm 24.4 27.5 24.2 99 0.1 S 15 26 8 14 - - 6.4
24/03:00pm 24.7 28.0 24.5 99 0.1 S 15 20 8 11 - - 6.4
24/02:30pm 24.9 29.8 24.7 99 0.1 S 7 17 4 9 - - 6.0
24/02:00pm 24.8 28.9 24.6 99 0.1 S 11 15 6 8 - - 5.0
24/01:30pm 25.0 28.8 24.7 98 0.2 S 13 20 7 11 - - 1.2
24/01:00pm 25.0 28.6 24.3 96 0.5 S 13 19 7 10 - - 0.6
24/12:30pm 25.0 26.9 23.8 93 0.8 SSE 20 30 11 16 - - 0.2
24/12:00pm 25.5 28.7 24.3 93 0.8 SSE 15 24 8 13 - - 0.2
24/11:30am 26.6 29.5 24.4 88 1.5 SE 17 22 9 12 - - 0.2
24/11:00am 26.3 29.8 24.2 88 1.4 SSE 13 19 7 10 - - 0.2
24/10:30am 26.3 29.7 24.0 87 1.6 SSE 13 20 7 11 - - 0.2
24/10:00am 26.0 28.6 24.0 89 1.4 S 17 24 9 13 - - 0.2
24/09:30am 25.5 29.3 24.1 92 1.0 S 11 17 6 9 - - 0.2
24/09:00am 24.9 28.2 23.9 94 0.7 S 13 24 7 13 - - 0.4
24/08:30am 24.4 28.1 23.9 97 0.3 S 11 15 6 8 - - 0.4
24/08:00am 23.9 27.7 23.4 97 0.3 SSE 9 17 5 9 - - 0.4
24/07:30am 24.0 27.7 23.3 96 0.5 SSW 9 15 5 8 - - 0.2
24/07:00am 24.0 27.2 23.0 94 0.7 S 11 15 6 8 - - 0.2
24/06:30am 24.3 25.8 22.7 91 1.1 S 19 24 10 13 - - 0.2
24/06:00am 24.7 26.5 22.6 88 1.4 S 17 26 9 14 - - 0.2
24/05:30am 24.6 27.2 22.7 89 1.3 SSE 13 19 7 10 - - 0.2
24/05:00am 24.4 26.8 23.0 92 0.9 S 15 20 8 11 - - 0.2
24/04:30am 24.6 26.9 22.8 90 1.2 SSE 15 20 8 11 - - 0.2
24/04:00am 24.5 26.9 22.9 91 1.1 SSE 15 24 8 13 - - 0.2
24/03:30am 24.4 26.4 23.0 92 0.9 S 17 24 9 13 - - 0.2
24/03:00am 24.6 26.6 23.0 91 1.1 S 17 28 9 15 - - 0.2
24/02:30am 24.8 27.6 23.0 90 1.2 S 13 17 7 9 - - 0.2
24/02:00am 25.0 27.5 23.2 90 1.2 S 15 24 8 13 - - 0.2
24/01:30am 24.6 27.7 22.8 90 1.2 S 11 15 6 8 - - 0.2
24/01:00am 24.6 26.9 22.8 90 1.2 S 15 22 8 12 - - 0.2
24/12:30am 24.9 27.4 23.1 90 1.2 S 15 20 8 11 - - 0.2
24/12:00am 24.5 28.1 23.1 92 0.9 SSW 9 13 5 7 - - 0.2
 
Date/Time
EST
Temp
°C
App
Temp
°C
Dew
Point
Rel
Hum
%
Delta-T
°C
Wind Press
QNH
hPa
Press
MSL
hPa
Rain
since 9 am
mm
Dir
 
Spd
km/h
Gust
km/h
Spd
kts
Gust
kts
23/11:30pm 24.7 28.3 23.1 91 1.1 S 9 13 5 7 - - 0.2
23/11:00pm 24.6 28.5 23.0 91 1.1 S 7 17 4 9 - - 0.2
23/10:30pm 24.5 27.6 22.9 91 1.1 S 11 17 6 9 - - 0.2
23/10:00pm 24.6 27.8 23.0 91 1.1 SSE 11 17 6 9 - - 0.2
23/09:30pm 24.3 27.8 22.9 92 0.9 S 9 13 5 7 - - 0.2
23/09:00pm 24.7 27.8 22.9 90 1.2 S 11 15 6 8 - - 0.2
23/08:30pm 25.2 27.7 23.1 88 1.4 SSE 15 24 8 13 - - 0.2
23/08:00pm 25.2 27.4 23.3 89 1.3 S 17 24 9 13 - - 0.2
23/07:30pm 25.1 28.7 23.0 88 1.4 S 9 15 5 8 - - 0.2
23/07:00pm 25.5 28.3 23.0 86 1.7 SSE 13 19 7 10 - - 0.2
23/06:30pm 25.8 27.9 23.1 85 1.8 S 17 24 9 13 - - 0.2
23/06:00pm 26.4 29.0 23.3 83 2.1 SSE 15 24 8 13 - - 0.2
23/05:30pm 27.0 29.6 23.3 80 2.5 SSE 15 22 8 12 - - 0.2
23/05:00pm 27.1 30.4 23.8 82 2.3 SSE 13 19 7 10 - - 0.2
23/04:30pm 27.7 30.5 23.7 79 2.7 SSE 15 22 8 12 - - 0.2
23/04:00pm 28.1 31.4 23.9 78 2.9 SE 13 19 7 10 - - 0.2
23/03:30pm 28.2 32.1 24.2 79 2.8 SSE 11 17 6 9 - - 0.2
23/03:00pm 29.2 32.0 23.6 72 3.9 SE 15 22 8 12 - - 0.2
23/02:30pm 28.3 30.6 23.4 75 3.4 ESE 17 22 9 12 - - 0.2
23/02:00pm 28.9 33.1 24.7 78 2.9 SE 11 24 6 13 - - 0.2
23/01:30pm 29.2 33.0 24.1 74 3.5 SSE 11 19 6 10 - - 0.2
23/01:00pm 28.1 31.7 24.3 80 2.6 SE 13 19 7 10 - - 0.2
23/12:30pm 28.2 31.3 23.6 76 3.2 SE 13 17 7 9 - - 0.2
23/12:00pm 27.5 31.1 23.7 80 2.6 SSE 11 19 6 10 - - 0.2
23/11:30am 27.6 29.8 23.2 77 3.0 SSE 17 24 9 13 - - 0.2
23/11:00am 28.1 32.2 24.5 81 2.5 SSE 11 19 6 10 - - 0.2
23/10:30am 26.8 29.8 24.6 88 1.5 S 17 20 9 11 - - 0.2
23/10:00am 25.8 29.5 24.6 93 0.8 S 13 17 7 9 - - 0.2
23/09:30am 24.7 29.0 24.2 97 0.3 S 9 13 5 7 - - 0.2
23/09:00am 24.6 28.9 24.3 98 0.2 SSW 9 13 5 7 - - 0.6
23/08:30am 24.6 29.0 24.4 99 0.1 S 9 13 5 7 - - 0.4
23/08:00am 24.3 27.7 23.4 95 0.6 S 11 15 6 8 - - 0.4
23/07:30am 24.0 27.4 23.3 96 0.5 SSE 11 15 6 8 - - 0.4
23/07:00am 23.8 27.6 22.8 94 0.7 SSE 7 13 4 7 - - 0.2
23/06:30am 24.2 27.5 22.6 91 1.1 SSE 9 15 5 8 - - 0.2
23/06:00am 24.0 26.7 22.8 93 0.8 S 13 17 7 9 - - 0.2
23/05:30am 24.1 26.7 22.7 92 0.9 S 13 19 7 10 - - 0.2
23/05:00am 23.7 26.7 22.7 94 0.7 S 11 20 6 11 - - 0.2
23/04:30am 23.7 26.8 22.9 95 0.5 SSE 11 13 6 7 - - 0.2
23/04:00am 23.6 26.7 22.8 95 0.5 S 11 19 6 10 - - 0.2
23/03:30am 23.4 26.8 22.7 96 0.5 S 9 15 5 8 - - 0.2
23/03:00am 23.7 26.7 22.7 94 0.7 S 11 17 6 9 - - 0.2
23/02:30am 23.6 26.7 22.2 92 0.9 SSE 9 13 5 7 - - 0.2
23/02:00am 23.5 26.5 21.9 91 1.1 S 9 13 5 7 - - 0.2
23/01:30am 23.6 26.6 22.0 91 1.1 SE 9 15 5 8 - - 0.2
23/01:00am 23.8 26.9 22.1 90 1.1 SSE 9 15 5 8 - - 0.2
23/12:30am 23.8 26.5 22.1 90 1.1 S 11 15 6 8 - - 0.2
23/12:00am 23.4 26.1 22.2 93 0.8 S 11 15 6 8 - - 0.2
 
Date/Time
EST
Temp
°C
App
Temp
°C
Dew
Point
Rel
Hum
%
Delta-T
°C
Wind Press
QNH
hPa
Press
MSL
hPa
Rain
since 9 am
mm
Dir
 
Spd
km/h
Gust
km/h
Spd
kts
Gust
kts
22/11:30pm 23.5 26.4 22.5 94 0.7 S 11 17 6 9 - - 0.2
22/11:00pm 23.8 26.4 22.6 93 0.8 S 13 17 7 9 - - 0.2
22/10:30pm 23.9 27.1 22.3 91 1.1 S 9 17 5 9 - - 0.2
22/10:00pm 24.0 26.7 22.1 89 1.3 S 11 19 6 10 - - 0.2
22/09:30pm 24.3 27.0 22.2 88 1.4 SSE 11 15 6 8 - - 0.2
22/09:00pm 24.0 27.1 22.1 89 1.3 S 9 15 5 8 - - 0.2
22/08:30pm 24.0 27.1 22.1 89 1.3 S 9 13 5 7 - - 0.2
22/08:00pm 24.2 27.4 22.3 89 1.3 S 9 15 5 8 - - 0.2

Other Formats:

Comma delimited format used in spreadsheet applications
http://www.bom.gov.au/fwo/IDQ60801/IDQ60801.94288.axf

JavaScript Object Notation format (JSON) in row-major order
http://www.bom.gov.au/fwo/IDQ60801/IDQ60801.94288.json